sensor_id;sensor_type;location;lat;lon;timestamp;P1;durP1;ratioP1;P2;durP2;ratioP2
73428;SDS011;61643;49.564;17.412;2023-07-31T00:01:35;2.88;;;1.65;;
73428;SDS011;61643;49.564;17.412;2023-07-31T00:04:00;2.30;;;1.75;;
73428;SDS011;61643;49.564;17.412;2023-07-31T00:06:26;2.65;;;1.88;;
73428;SDS011;61643;49.564;17.412;2023-07-31T00:08:52;1.48;;;1.38;;
73428;SDS011;61643;49.564;17.412;2023-07-31T00:11:18;2.13;;;1.73;;
73428;SDS011;61643;49.564;17.412;2023-07-31T00:13:44;1.92;;;1.67;;
73428;SDS011;61643;49.564;17.412;2023-07-31T00:16:10;3.13;;;1.73;;
73428;SDS011;61643;49.564;17.412;2023-07-31T00:18:36;4.65;;;1.63;;
73428;SDS011;61643;49.564;17.412;2023-07-31T00:21:02;1.60;;;1.50;;
73428;SDS011;61643;49.564;17.412;2023-07-31T00:23:28;2.17;;;1.50;;
73428;SDS011;61643;49.564;17.412;2023-07-31T00:25:54;2.58;;;1.80;;
73428;SDS011;61643;49.564;17.412;2023-07-31T00:28:20;3.78;;;1.73;;
73428;SDS011;61643;49.564;17.412;2023-07-31T00:30:46;2.83;;;1.88;;
73428;SDS011;61643;49.564;17.412;2023-07-31T00:33:12;1.95;;;1.48;;
73428;SDS011;61643;49.564;17.412;2023-07-31T00:35:38;1.90;;;1.63;;
73428;SDS011;61643;49.564;17.412;2023-07-31T00:38:04;4.57;;;1.60;;
73428;SDS011;61643;49.564;17.412;2023-07-31T00:40:33;4.30;;;1.58;;
73428;SDS011;61643;49.564;17.412;2023-07-31T00:43:00;2.70;;;1.55;;
73428;SDS011;61643;49.564;17.412;2023-07-31T00:45:26;2.67;;;1.80;;
73428;SDS011;61643;49.564;17.412;2023-07-31T00:47:54;5.90;;;1.50;;
73428;SDS011;61643;49.564;17.412;2023-07-31T00:50:20;3.05;;;1.30;;
73428;SDS011;61643;49.564;17.412;2023-07-31T00:52:48;4.40;;;1.52;;
73428;SDS011;61643;49.564;17.412;2023-07-31T00:55:14;4.90;;;1.70;;
73428;SDS011;61643;49.564;17.412;2023-07-31T00:57:40;3.70;;;1.52;;
73428;SDS011;61643;49.564;17.412;2023-07-31T01:00:07;1.90;;;1.50;;
73428;SDS011;61643;49.564;17.412;2023-07-31T01:02:33;4.25;;;1.52;;
73428;SDS011;61643;49.564;17.412;2023-07-31T01:05:01;3.90;;;1.50;;
73428;SDS011;61643;49.564;17.412;2023-07-31T01:10:16;2.13;;;1.45;;
73428;SDS011;61643;49.564;17.412;2023-07-31T01:12:47;2.25;;;1.27;;
73428;SDS011;61643;49.564;17.412;2023-07-31T01:15:15;2.72;;;1.33;;
73428;SDS011;61643;49.564;17.412;2023-07-31T01:17:43;2.03;;;1.40;;
73428;SDS011;61643;49.564;17.412;2023-07-31T01:20:13;2.60;;;1.50;;
73428;SDS011;61643;49.564;17.412;2023-07-31T01:31:29;3.40;;;1.42;;
73428;SDS011;61643;49.564;17.412;2023-07-31T01:33:56;2.17;;;1.48;;
73428;SDS011;61643;49.564;17.412;2023-07-31T01:36:25;5.10;;;1.75;;
73428;SDS011;61643;49.564;17.412;2023-07-31T01:38:51;3.45;;;1.20;;
73428;SDS011;61643;49.564;17.412;2023-07-31T01:41:18;5.18;;;1.70;;
73428;SDS011;61643;49.564;17.412;2023-07-31T01:43:45;2.30;;;1.60;;
73428;SDS011;61643;49.564;17.412;2023-07-31T01:46:11;2.88;;;1.65;;
73428;SDS011;61643;49.564;17.412;2023-07-31T01:48:37;2.40;;;1.67;;
73428;SDS011;61643;49.564;17.412;2023-07-31T01:51:03;2.40;;;1.40;;
73428;SDS011;61643;49.564;17.412;2023-07-31T01:53:32;2.72;;;1.52;;
73428;SDS011;61643;49.564;17.412;2023-07-31T01:55:59;2.85;;;1.50;;
73428;SDS011;61643;49.564;17.412;2023-07-31T01:58:25;4.82;;;1.70;;
73428;SDS011;61643;49.564;17.412;2023-07-31T02:00:51;3.33;;;1.88;;
73428;SDS011;61643;49.564;17.412;2023-07-31T02:03:17;3.53;;;1.60;;
73428;SDS011;61643;49.564;17.412;2023-07-31T02:05:49;3.03;;;1.58;;
73428;SDS011;61643;49.564;17.412;2023-07-31T02:08:15;3.28;;;1.60;;
73428;SDS011;61643;49.564;17.412;2023-07-31T02:10:42;2.88;;;1.50;;
73428;SDS011;61643;49.564;17.412;2023-07-31T02:13:08;2.22;;;1.65;;
73428;SDS011;61643;49.564;17.412;2023-07-31T02:15:35;3.03;;;1.80;;
73428;SDS011;61643;49.564;17.412;2023-07-31T02:18:01;2.67;;;1.80;;
73428;SDS011;61643;49.564;17.412;2023-07-31T02:20:27;5.10;;;1.90;;
73428;SDS011;61643;49.564;17.412;2023-07-31T02:22:53;4.45;;;1.67;;
73428;SDS011;61643;49.564;17.412;2023-07-31T02:25:19;7.45;;;1.83;;
73428;SDS011;61643;49.564;17.412;2023-07-31T02:27:45;7.13;;;1.90;;
73428;SDS011;61643;49.564;17.412;2023-07-31T02:30:11;3.80;;;1.70;;
73428;SDS011;61643;49.564;17.412;2023-07-31T02:32:37;3.42;;;1.98;;
73428;SDS011;61643;49.564;17.412;2023-07-31T02:35:03;2.83;;;1.48;;
73428;SDS011;61643;49.564;17.412;2023-07-31T02:37:29;3.42;;;1.80;;
73428;SDS011;61643;49.564;17.412;2023-07-31T02:39:55;3.30;;;1.90;;
73428;SDS011;61643;49.564;17.412;2023-07-31T02:42:21;4.20;;;1.70;;
73428;SDS011;61643;49.564;17.412;2023-07-31T02:44:47;6.28;;;1.90;;
73428;SDS011;61643;49.564;17.412;2023-07-31T02:47:13;2.75;;;1.45;;
73428;SDS011;61643;49.564;17.412;2023-07-31T02:49:39;3.85;;;1.95;;
73428;SDS011;61643;49.564;17.412;2023-07-31T02:52:05;3.67;;;1.73;;
73428;SDS011;61643;49.564;17.412;2023-07-31T02:54:31;3.13;;;1.70;;
73428;SDS011;61643;49.564;17.412;2023-07-31T02:56:57;7.07;;;2.00;;
73428;SDS011;61643;49.564;17.412;2023-07-31T02:59:23;3.60;;;1.75;;
73428;SDS011;61643;49.564;17.412;2023-07-31T03:01:49;2.83;;;1.80;;
73428;SDS011;61643;49.564;17.412;2023-07-31T03:04:14;3.65;;;1.65;;
73428;SDS011;61643;49.564;17.412;2023-07-31T03:06:40;3.53;;;1.63;;
73428;SDS011;61643;49.564;17.412;2023-07-31T03:09:06;3.20;;;1.90;;
73428;SDS011;61643;49.564;17.412;2023-07-31T03:11:32;6.78;;;1.83;;
73428;SDS011;61643;49.564;17.412;2023-07-31T03:13:58;3.75;;;1.77;;
73428;SDS011;61643;49.564;17.412;2023-07-31T03:16:24;6.32;;;1.90;;
73428;SDS011;61643;49.564;17.412;2023-07-31T03:18:50;4.75;;;1.90;;
73428;SDS011;61643;49.564;17.412;2023-07-31T03:21:16;3.08;;;1.77;;
73428;SDS011;61643;49.564;17.412;2023-07-31T03:23:42;3.00;;;1.63;;
73428;SDS011;61643;49.564;17.412;2023-07-31T03:26:09;5.97;;;1.85;;
73428;SDS011;61643;49.564;17.412;2023-07-31T03:28:35;2.60;;;1.90;;
73428;SDS011;61643;49.564;17.412;2023-07-31T03:31:01;2.85;;;2.00;;
73428;SDS011;61643;49.564;17.412;2023-07-31T03:33:27;4.95;;;1.83;;
73428;SDS011;61643;49.564;17.412;2023-07-31T03:35:53;3.10;;;1.70;;
73428;SDS011;61643;49.564;17.412;2023-07-31T03:38:19;3.67;;;1.95;;
73428;SDS011;61643;49.564;17.412;2023-07-31T03:40:45;6.45;;;2.08;;
73428;SDS011;61643;49.564;17.412;2023-07-31T03:43:12;4.45;;;1.70;;
73428;SDS011;61643;49.564;17.412;2023-07-31T03:45:38;4.63;;;1.85;;
73428;SDS011;61643;49.564;17.412;2023-07-31T03:48:04;2.55;;;1.80;;
73428;SDS011;61643;49.564;17.412;2023-07-31T03:50:30;4.30;;;2.15;;
73428;SDS011;61643;49.564;17.412;2023-07-31T03:52:56;4.03;;;2.08;;
73428;SDS011;61643;49.564;17.412;2023-07-31T03:55:22;3.38;;;1.95;;
73428;SDS011;61643;49.564;17.412;2023-07-31T03:57:48;5.80;;;2.30;;
73428;SDS011;61643;49.564;17.412;2023-07-31T04:00:14;3.58;;;2.45;;
73428;SDS011;61643;49.564;17.412;2023-07-31T04:02:41;4.15;;;2.30;;
73428;SDS011;61643;49.564;17.412;2023-07-31T04:05:07;2.53;;;1.90;;
73428;SDS011;61643;49.564;17.412;2023-07-31T04:07:33;3.55;;;2.30;;
73428;SDS011;61643;49.564;17.412;2023-07-31T04:09:59;3.90;;;2.03;;
73428;SDS011;61643;49.564;17.412;2023-07-31T04:12:25;2.78;;;1.92;;
73428;SDS011;61643;49.564;17.412;2023-07-31T04:14:51;4.85;;;2.35;;
73428;SDS011;61643;49.564;17.412;2023-07-31T04:17:17;5.32;;;2.17;;
73428;SDS011;61643;49.564;17.412;2023-07-31T04:19:44;3.05;;;2.10;;
73428;SDS011;61643;49.564;17.412;2023-07-31T04:22:09;4.88;;;2.20;;
73428;SDS011;61643;49.564;17.412;2023-07-31T04:24:35;3.15;;;2.20;;
73428;SDS011;61643;49.564;17.412;2023-07-31T04:27:01;3.28;;;2.35;;
73428;SDS011;61643;49.564;17.412;2023-07-31T04:29:28;3.65;;;2.33;;
73428;SDS011;61643;49.564;17.412;2023-07-31T04:31:54;6.18;;;2.75;;
73428;SDS011;61643;49.564;17.412;2023-07-31T04:34:19;6.25;;;2.92;;
73428;SDS011;61643;49.564;17.412;2023-07-31T04:36:45;3.65;;;2.15;;
73428;SDS011;61643;49.564;17.412;2023-07-31T04:39:11;4.30;;;2.50;;
73428;SDS011;61643;49.564;17.412;2023-07-31T04:41:37;4.25;;;2.20;;
73428;SDS011;61643;49.564;17.412;2023-07-31T04:44:03;4.65;;;2.33;;
73428;SDS011;61643;49.564;17.412;2023-07-31T04:46:29;4.45;;;2.05;;
73428;SDS011;61643;49.564;17.412;2023-07-31T04:48:56;4.90;;;2.30;;
73428;SDS011;61643;49.564;17.412;2023-07-31T04:51:22;5.60;;;2.47;;
73428;SDS011;61643;49.564;17.412;2023-07-31T04:53:49;3.40;;;2.08;;
73428;SDS011;61643;49.564;17.412;2023-07-31T04:56:15;3.20;;;2.30;;
73428;SDS011;61643;49.564;17.412;2023-07-31T04:58:41;3.30;;;2.15;;
73428;SDS011;61643;49.564;17.412;2023-07-31T05:01:07;4.00;;;1.95;;
73428;SDS011;61643;49.564;17.412;2023-07-31T05:03:33;6.28;;;2.17;;
73428;SDS011;61643;49.564;17.412;2023-07-31T05:05:59;3.22;;;2.05;;
73428;SDS011;61643;49.564;17.412;2023-07-31T05:08:25;4.55;;;2.10;;
73428;SDS011;61643;49.564;17.412;2023-07-31T05:10:51;4.85;;;2.13;;
73428;SDS011;61643;49.564;17.412;2023-07-31T05:13:17;3.08;;;2.05;;
73428;SDS011;61643;49.564;17.412;2023-07-31T05:15:43;4.82;;;2.20;;
73428;SDS011;61643;49.564;17.412;2023-07-31T05:18:09;5.82;;;2.03;;
73428;SDS011;61643;49.564;17.412;2023-07-31T05:20:35;3.28;;;2.22;;
73428;SDS011;61643;49.564;17.412;2023-07-31T05:23:01;3.17;;;2.03;;
73428;SDS011;61643;49.564;17.412;2023-07-31T05:25:27;3.85;;;2.20;;
73428;SDS011;61643;49.564;17.412;2023-07-31T05:27:53;4.15;;;2.05;;
73428;SDS011;61643;49.564;17.412;2023-07-31T05:30:19;2.78;;;1.92;;
73428;SDS011;61643;49.564;17.412;2023-07-31T05:32:46;2.95;;;2.20;;
73428;SDS011;61643;49.564;17.412;2023-07-31T05:35:12;4.70;;;2.25;;
73428;SDS011;61643;49.564;17.412;2023-07-31T05:37:38;4.13;;;2.45;;
73428;SDS011;61643;49.564;17.412;2023-07-31T05:40:04;3.70;;;2.10;;
73428;SDS011;61643;49.564;17.412;2023-07-31T05:42:31;3.97;;;2.58;;
73428;SDS011;61643;49.564;17.412;2023-07-31T05:44:57;3.25;;;2.20;;
73428;SDS011;61643;49.564;17.412;2023-07-31T05:47:23;2.75;;;2.00;;
73428;SDS011;61643;49.564;17.412;2023-07-31T05:49:49;2.67;;;2.30;;
73428;SDS011;61643;49.564;17.412;2023-07-31T05:52:18;3.42;;;2.45;;
73428;SDS011;61643;49.564;17.412;2023-07-31T05:54:44;4.20;;;2.20;;
73428;SDS011;61643;49.564;17.412;2023-07-31T05:57:11;5.95;;;2.78;;
73428;SDS011;61643;49.564;17.412;2023-07-31T05:59:37;5.45;;;2.50;;
73428;SDS011;61643;49.564;17.412;2023-07-31T06:02:03;6.65;;;2.30;;
73428;SDS011;61643;49.564;17.412;2023-07-31T06:04:29;7.15;;;2.15;;
73428;SDS011;61643;49.564;17.412;2023-07-31T06:06:56;3.05;;;2.20;;
73428;SDS011;61643;49.564;17.412;2023-07-31T06:09:22;6.05;;;2.35;;
73428;SDS011;61643;49.564;17.412;2023-07-31T06:11:48;4.20;;;2.35;;
73428;SDS011;61643;49.564;17.412;2023-07-31T06:14:14;3.35;;;2.55;;
73428;SDS011;61643;49.564;17.412;2023-07-31T06:16:40;4.40;;;2.30;;
73428;SDS011;61643;49.564;17.412;2023-07-31T06:19:06;5.15;;;2.85;;
73428;SDS011;61643;49.564;17.412;2023-07-31T06:21:33;4.18;;;2.70;;
73428;SDS011;61643;49.564;17.412;2023-07-31T06:23:59;5.07;;;2.40;;
73428;SDS011;61643;49.564;17.412;2023-07-31T06:26:25;5.07;;;3.45;;
73428;SDS011;61643;49.564;17.412;2023-07-31T06:28:51;8.40;;;3.80;;
73428;SDS011;61643;49.564;17.412;2023-07-31T06:31:17;5.38;;;3.53;;
73428;SDS011;61643;49.564;17.412;2023-07-31T06:33:46;5.25;;;3.75;;
73428;SDS011;61643;49.564;17.412;2023-07-31T06:36:11;5.10;;;3.80;;
73428;SDS011;61643;49.564;17.412;2023-07-31T06:38:38;4.82;;;3.88;;
73428;SDS011;61643;49.564;17.412;2023-07-31T06:41:03;8.63;;;4.55;;
73428;SDS011;61643;49.564;17.412;2023-07-31T06:43:29;6.35;;;3.30;;
73428;SDS011;61643;49.564;17.412;2023-07-31T06:45:55;4.65;;;3.47;;
73428;SDS011;61643;49.564;17.412;2023-07-31T06:48:21;6.00;;;3.85;;
73428;SDS011;61643;49.564;17.412;2023-07-31T06:50:47;6.95;;;3.72;;
73428;SDS011;61643;49.564;17.412;2023-07-31T06:53:13;7.03;;;3.75;;
73428;SDS011;61643;49.564;17.412;2023-07-31T06:55:39;7.30;;;3.58;;
73428;SDS011;61643;49.564;17.412;2023-07-31T06:58:05;6.63;;;4.00;;
73428;SDS011;61643;49.564;17.412;2023-07-31T07:00:31;7.03;;;3.45;;
73428;SDS011;61643;49.564;17.412;2023-07-31T07:02:58;6.85;;;3.05;;
73428;SDS011;61643;49.564;17.412;2023-07-31T07:05:24;3.55;;;2.42;;
73428;SDS011;61643;49.564;17.412;2023-07-31T07:07:50;8.07;;;2.30;;
73428;SDS011;61643;49.564;17.412;2023-07-31T07:10:17;4.22;;;2.22;;
73428;SDS011;61643;49.564;17.412;2023-07-31T07:12:44;4.57;;;2.60;;
73428;SDS011;61643;49.564;17.412;2023-07-31T07:15:09;7.25;;;3.50;;
73428;SDS011;61643;49.564;17.412;2023-07-31T07:17:36;5.07;;;2.95;;
73428;SDS011;61643;49.564;17.412;2023-07-31T07:20:02;9.45;;;3.45;;
73428;SDS011;61643;49.564;17.412;2023-07-31T07:22:29;4.95;;;3.22;;
73428;SDS011;61643;49.564;17.412;2023-07-31T07:24:55;8.25;;;3.85;;
73428;SDS011;61643;49.564;17.412;2023-07-31T07:27:21;5.20;;;3.03;;
73428;SDS011;61643;49.564;17.412;2023-07-31T07:29:47;6.30;;;3.40;;
73428;SDS011;61643;49.564;17.412;2023-07-31T07:32:15;5.30;;;3.47;;
73428;SDS011;61643;49.564;17.412;2023-07-31T07:34:43;8.15;;;3.83;;
73428;SDS011;61643;49.564;17.412;2023-07-31T07:37:08;6.10;;;3.40;;
73428;SDS011;61643;49.564;17.412;2023-07-31T07:39:34;5.07;;;3.03;;
73428;SDS011;61643;49.564;17.412;2023-07-31T07:42:00;6.60;;;3.10;;
73428;SDS011;61643;49.564;17.412;2023-07-31T07:44:26;6.43;;;2.90;;
73428;SDS011;61643;49.564;17.412;2023-07-31T07:46:52;7.13;;;2.70;;
73428;SDS011;61643;49.564;17.412;2023-07-31T07:49:18;4.35;;;2.40;;
73428;SDS011;61643;49.564;17.412;2023-07-31T07:51:44;6.53;;;2.20;;
73428;SDS011;61643;49.564;17.412;2023-07-31T07:54:10;4.93;;;2.55;;
73428;SDS011;61643;49.564;17.412;2023-07-31T07:56:36;3.65;;;2.47;;
73428;SDS011;61643;49.564;17.412;2023-07-31T07:59:02;4.60;;;2.40;;
73428;SDS011;61643;49.564;17.412;2023-07-31T08:01:28;4.88;;;2.45;;
73428;SDS011;61643;49.564;17.412;2023-07-31T08:03:54;4.97;;;2.42;;
73428;SDS011;61643;49.564;17.412;2023-07-31T08:06:20;3.53;;;2.40;;
73428;SDS011;61643;49.564;17.412;2023-07-31T08:08:46;3.22;;;2.05;;
73428;SDS011;61643;49.564;17.412;2023-07-31T08:11:12;4.47;;;1.88;;
73428;SDS011;61643;49.564;17.412;2023-07-31T08:13:38;5.15;;;1.90;;
73428;SDS011;61643;49.564;17.412;2023-07-31T08:16:04;3.50;;;1.70;;
73428;SDS011;61643;49.564;17.412;2023-07-31T08:18:31;4.60;;;1.70;;
73428;SDS011;61643;49.564;17.412;2023-07-31T08:20:58;4.72;;;2.00;;
73428;SDS011;61643;49.564;17.412;2023-07-31T08:23:24;3.63;;;1.65;;
73428;SDS011;61643;49.564;17.412;2023-07-31T08:25:50;2.70;;;1.90;;
73428;SDS011;61643;49.564;17.412;2023-07-31T08:28:16;5.78;;;1.63;;
73428;SDS011;61643;49.564;17.412;2023-07-31T08:30:42;3.63;;;1.77;;
73428;SDS011;61643;49.564;17.412;2023-07-31T08:33:08;3.92;;;1.63;;
73428;SDS011;61643;49.564;17.412;2023-07-31T08:35:34;3.85;;;1.60;;
73428;SDS011;61643;49.564;17.412;2023-07-31T08:38:00;3.90;;;1.67;;
73428;SDS011;61643;49.564;17.412;2023-07-31T08:40:26;3.08;;;1.30;;
73428;SDS011;61643;49.564;17.412;2023-07-31T08:42:54;2.80;;;1.45;;
73428;SDS011;61643;49.564;17.412;2023-07-31T08:45:27;7.20;;;1.90;;
73428;SDS011;61643;49.564;17.412;2023-07-31T08:47:54;6.75;;;1.88;;
73428;SDS011;61643;49.564;17.412;2023-07-31T08:50:21;5.88;;;1.50;;
73428;SDS011;61643;49.564;17.412;2023-07-31T08:52:49;8.10;;;2.80;;
73428;SDS011;61643;49.564;17.412;2023-07-31T08:55:17;2.88;;;1.35;;
73428;SDS011;61643;49.564;17.412;2023-07-31T08:57:49;5.85;;;1.73;;
73428;SDS011;61643;49.564;17.412;2023-07-31T09:00:18;3.45;;;1.40;;
73428;SDS011;61643;49.564;17.412;2023-07-31T09:02:57;5.78;;;1.35;;
73428;SDS011;61643;49.564;17.412;2023-07-31T09:05:35;2.15;;;1.20;;
73428;SDS011;61643;49.564;17.412;2023-07-31T09:10:29;3.72;;;1.40;;
73428;SDS011;61643;49.564;17.412;2023-07-31T09:12:55;4.97;;;1.20;;
73428;SDS011;61643;49.564;17.412;2023-07-31T09:15:23;1.88;;;1.23;;
73428;SDS011;61643;49.564;17.412;2023-07-31T09:17:58;15.43;;;3.30;;
73428;SDS011;61643;49.564;17.412;2023-07-31T09:20:28;3.35;;;1.13;;
73428;SDS011;61643;49.564;17.412;2023-07-31T09:22:54;3.22;;;1.10;;
73428;SDS011;61643;49.564;17.412;2023-07-31T09:25:22;5.25;;;1.30;;
73428;SDS011;61643;49.564;17.412;2023-07-31T09:27:50;4.43;;;1.27;;
73428;SDS011;61643;49.564;17.412;2023-07-31T09:30:19;6.22;;;1.50;;
73428;SDS011;61643;49.564;17.412;2023-07-31T09:32:46;2.15;;;1.13;;
73428;SDS011;61643;49.564;17.412;2023-07-31T09:35:27;5.93;;;1.60;;
73428;SDS011;61643;49.564;17.412;2023-07-31T09:37:58;1.85;;;1.15;;
73428;SDS011;61643;49.564;17.412;2023-07-31T09:42:56;4.38;;;1.30;;
73428;SDS011;61643;49.564;17.412;2023-07-31T09:45:29;3.70;;;1.27;;
73428;SDS011;61643;49.564;17.412;2023-07-31T09:47:59;2.53;;;1.27;;
73428;SDS011;61643;49.564;17.412;2023-07-31T09:50:25;5.40;;;1.45;;
73428;SDS011;61643;49.564;17.412;2023-07-31T09:52:51;4.40;;;1.17;;
73428;SDS011;61643;49.564;17.412;2023-07-31T09:55:18;2.78;;;1.30;;
73428;SDS011;61643;49.564;17.412;2023-07-31T09:57:45;2.30;;;1.20;;
73428;SDS011;61643;49.564;17.412;2023-07-31T10:00:13;2.58;;;1.20;;
73428;SDS011;61643;49.564;17.412;2023-07-31T10:02:40;4.00;;;1.00;;
73428;SDS011;61643;49.564;17.412;2023-07-31T10:05:07;2.15;;;1.10;;
73428;SDS011;61643;49.564;17.412;2023-07-31T10:07:37;3.97;;;1.05;;
73428;SDS011;61643;49.564;17.412;2023-07-31T10:10:05;3.50;;;1.05;;
73428;SDS011;61643;49.564;17.412;2023-07-31T10:12:33;4.13;;;1.05;;
73428;SDS011;61643;49.564;17.412;2023-07-31T10:15:00;3.60;;;1.02;;
73428;SDS011;61643;49.564;17.412;2023-07-31T10:17:26;3.92;;;0.93;;
73428;SDS011;61643;49.564;17.412;2023-07-31T10:19:53;1.90;;;0.90;;
73428;SDS011;61643;49.564;17.412;2023-07-31T10:22:19;2.55;;;1.00;;
73428;SDS011;61643;49.564;17.412;2023-07-31T10:24:46;3.38;;;1.17;;
73428;SDS011;61643;49.564;17.412;2023-07-31T10:29:40;2.45;;;0.90;;
73428;SDS011;61643;49.564;17.412;2023-07-31T10:32:09;4.65;;;1.08;;
73428;SDS011;61643;49.564;17.412;2023-07-31T10:34:38;3.28;;;1.10;;
73428;SDS011;61643;49.564;17.412;2023-07-31T10:37:19;4.30;;;1.15;;
73428;SDS011;61643;49.564;17.412;2023-07-31T10:39:56;2.00;;;0.90;;
73428;SDS011;61643;49.564;17.412;2023-07-31T10:42:35;1.55;;;0.90;;
73428;SDS011;61643;49.564;17.412;2023-07-31T10:45:02;2.30;;;0.90;;
73428;SDS011;61643;49.564;17.412;2023-07-31T10:47:30;3.00;;;1.00;;
73428;SDS011;61643;49.564;17.412;2023-07-31T10:52:38;4.38;;;1.08;;
73428;SDS011;61643;49.564;17.412;2023-07-31T10:55:14;1.10;;;0.85;;
73428;SDS011;61643;49.564;17.412;2023-07-31T10:57:45;4.20;;;0.98;;
73428;SDS011;61643;49.564;17.412;2023-07-31T11:00:24;2.95;;;0.95;;
73428;SDS011;61643;49.564;17.412;2023-07-31T11:02:56;3.85;;;1.33;;
73428;SDS011;61643;49.564;17.412;2023-07-31T11:05:26;3.25;;;0.93;;
73428;SDS011;61643;49.564;17.412;2023-07-31T11:08:13;3.22;;;1.30;;
73428;SDS011;61643;49.564;17.412;2023-07-31T11:10:40;1.33;;;0.80;;
73428;SDS011;61643;49.564;17.412;2023-07-31T11:13:06;1.50;;;0.90;;
73428;SDS011;61643;49.564;17.412;2023-07-31T11:15:32;1.75;;;0.80;;
73428;SDS011;61643;49.564;17.412;2023-07-31T11:17:59;3.00;;;1.00;;
73428;SDS011;61643;49.564;17.412;2023-07-31T11:20:29;0.98;;;0.95;;
73428;SDS011;61643;49.564;17.412;2023-07-31T11:22:58;3.38;;;0.98;;
73428;SDS011;61643;49.564;17.412;2023-07-31T11:25:25;1.73;;;1.08;;
73428;SDS011;61643;49.564;17.412;2023-07-31T11:27:51;1.50;;;0.88;;
73428;SDS011;61643;49.564;17.412;2023-07-31T11:30:19;3.00;;;1.15;;
73428;SDS011;61643;49.564;17.412;2023-07-31T11:32:46;2.00;;;1.00;;
73428;SDS011;61643;49.564;17.412;2023-07-31T11:35:12;4.03;;;1.08;;
73428;SDS011;61643;49.564;17.412;2023-07-31T11:37:39;2.38;;;1.10;;
73428;SDS011;61643;49.564;17.412;2023-07-31T11:40:09;2.55;;;1.10;;
73428;SDS011;61643;49.564;17.412;2023-07-31T11:42:36;3.40;;;1.00;;
73428;SDS011;61643;49.564;17.412;2023-07-31T11:45:03;2.50;;;0.98;;
73428;SDS011;61643;49.564;17.412;2023-07-31T11:47:32;4.57;;;1.17;;
73428;SDS011;61643;49.564;17.412;2023-07-31T11:50:02;5.60;;;1.25;;
73428;SDS011;61643;49.564;17.412;2023-07-31T11:52:29;2.05;;;1.10;;
73428;SDS011;61643;49.564;17.412;2023-07-31T11:54:59;1.50;;;0.70;;
73428;SDS011;61643;49.564;17.412;2023-07-31T11:57:26;6.30;;;1.00;;
73428;SDS011;61643;49.564;17.412;2023-07-31T11:59:54;2.50;;;0.73;;
73428;SDS011;61643;49.564;17.412;2023-07-31T12:02:21;3.10;;;0.90;;
73428;SDS011;61643;49.564;17.412;2023-07-31T12:04:47;2.40;;;0.82;;
73428;SDS011;61643;49.564;17.412;2023-07-31T12:07:14;1.73;;;1.00;;
73428;SDS011;61643;49.564;17.412;2023-07-31T12:09:50;3.38;;;0.88;;
73428;SDS011;61643;49.564;17.412;2023-07-31T12:12:21;2.45;;;1.08;;
73428;SDS011;61643;49.564;17.412;2023-07-31T12:14:48;4.20;;;1.02;;
73428;SDS011;61643;49.564;17.412;2023-07-31T12:17:16;1.90;;;0.90;;
73428;SDS011;61643;49.564;17.412;2023-07-31T12:19:44;3.08;;;1.13;;
73428;SDS011;61643;49.564;17.412;2023-07-31T12:22:13;2.22;;;0.90;;
73428;SDS011;61643;49.564;17.412;2023-07-31T12:24:40;3.05;;;1.00;;
73428;SDS011;61643;49.564;17.412;2023-07-31T12:27:08;1.40;;;0.88;;
73428;SDS011;61643;49.564;17.412;2023-07-31T12:29:35;3.45;;;1.10;;
73428;SDS011;61643;49.564;17.412;2023-07-31T12:32:01;2.47;;;0.93;;
73428;SDS011;61643;49.564;17.412;2023-07-31T12:34:27;2.83;;;1.02;;
73428;SDS011;61643;49.564;17.412;2023-07-31T12:36:53;2.80;;;0.88;;
73428;SDS011;61643;49.564;17.412;2023-07-31T12:39:19;5.43;;;1.10;;
73428;SDS011;61643;49.564;17.412;2023-07-31T12:41:46;1.83;;;0.85;;
73428;SDS011;61643;49.564;17.412;2023-07-31T12:44:12;2.13;;;0.95;;
73428;SDS011;61643;49.564;17.412;2023-07-31T12:46:38;2.33;;;1.08;;
73428;SDS011;61643;49.564;17.412;2023-07-31T12:49:03;2.55;;;1.00;;
73428;SDS011;61643;49.564;17.412;2023-07-31T12:51:30;3.67;;;1.10;;
73428;SDS011;61643;49.564;17.412;2023-07-31T12:53:56;2.58;;;1.00;;
73428;SDS011;61643;49.564;17.412;2023-07-31T12:56:22;3.03;;;0.90;;
73428;SDS011;61643;49.564;17.412;2023-07-31T12:58:48;1.67;;;1.00;;
73428;SDS011;61643;49.564;17.412;2023-07-31T13:01:13;2.53;;;1.00;;
73428;SDS011;61643;49.564;17.412;2023-07-31T13:03:39;2.95;;;1.20;;
73428;SDS011;61643;49.564;17.412;2023-07-31T13:06:05;2.65;;;1.08;;
73428;SDS011;61643;49.564;17.412;2023-07-31T13:08:31;1.90;;;1.00;;
73428;SDS011;61643;49.564;17.412;2023-07-31T13:10:57;4.15;;;0.90;;
73428;SDS011;61643;49.564;17.412;2023-07-31T13:13:23;3.35;;;1.10;;
73428;SDS011;61643;49.564;17.412;2023-07-31T13:15:49;4.82;;;1.20;;
73428;SDS011;61643;49.564;17.412;2023-07-31T13:18:15;2.03;;;0.90;;
73428;SDS011;61643;49.564;17.412;2023-07-31T13:20:41;3.03;;;1.20;;
73428;SDS011;61643;49.564;17.412;2023-07-31T13:23:07;3.28;;;0.88;;
73428;SDS011;61643;49.564;17.412;2023-07-31T13:25:33;1.52;;;0.90;;
73428;SDS011;61643;49.564;17.412;2023-07-31T13:27:59;2.65;;;1.52;;
73428;SDS011;61643;49.564;17.412;2023-07-31T13:30:25;1.17;;;0.90;;
73428;SDS011;61643;49.564;17.412;2023-07-31T13:32:51;5.65;;;1.00;;
73428;SDS011;61643;49.564;17.412;2023-07-31T13:35:17;2.00;;;0.85;;
73428;SDS011;61643;49.564;17.412;2023-07-31T13:37:43;3.40;;;1.20;;
73428;SDS011;61643;49.564;17.412;2023-07-31T13:40:09;4.90;;;1.20;;
73428;SDS011;61643;49.564;17.412;2023-07-31T13:42:35;3.63;;;1.10;;
73428;SDS011;61643;49.564;17.412;2023-07-31T13:45:01;2.53;;;1.00;;
73428;SDS011;61643;49.564;17.412;2023-07-31T13:47:27;2.53;;;1.10;;
73428;SDS011;61643;49.564;17.412;2023-07-31T13:49:53;2.83;;;1.20;;
73428;SDS011;61643;49.564;17.412;2023-07-31T13:52:19;4.95;;;1.27;;
73428;SDS011;61643;49.564;17.412;2023-07-31T13:54:45;3.78;;;1.17;;
73428;SDS011;61643;49.564;17.412;2023-07-31T13:57:11;3.47;;;1.02;;
73428;SDS011;61643;49.564;17.412;2023-07-31T13:59:37;1.88;;;0.88;;
73428;SDS011;61643;49.564;17.412;2023-07-31T14:02:03;3.10;;;1.10;;
73428;SDS011;61643;49.564;17.412;2023-07-31T14:04:29;3.13;;;0.93;;
73428;SDS011;61643;49.564;17.412;2023-07-31T14:06:55;1.63;;;1.00;;
73428;SDS011;61643;49.564;17.412;2023-07-31T14:09:22;1.55;;;0.88;;
73428;SDS011;61643;49.564;17.412;2023-07-31T14:11:48;1.83;;;0.90;;
73428;SDS011;61643;49.564;17.412;2023-07-31T14:14:14;2.83;;;1.10;;
73428;SDS011;61643;49.564;17.412;2023-07-31T14:16:40;2.40;;;1.10;;
73428;SDS011;61643;49.564;17.412;2023-07-31T14:19:06;1.83;;;1.00;;
73428;SDS011;61643;49.564;17.412;2023-07-31T14:24:18;2.75;;;0.90;;
73428;SDS011;61643;49.564;17.412;2023-07-31T14:26:44;3.13;;;1.27;;
73428;SDS011;61643;49.564;17.412;2023-07-31T14:29:10;4.13;;;1.10;;
73428;SDS011;61643;49.564;17.412;2023-07-31T14:31:36;1.60;;;1.20;;
73428;SDS011;61643;49.564;17.412;2023-07-31T14:34:02;1.58;;;1.02;;
73428;SDS011;61643;49.564;17.412;2023-07-31T14:36:28;4.13;;;1.00;;
73428;SDS011;61643;49.564;17.412;2023-07-31T14:38:54;3.00;;;1.10;;
73428;SDS011;61643;49.564;17.412;2023-07-31T14:41:20;2.00;;;0.95;;
73428;SDS011;61643;49.564;17.412;2023-07-31T14:43:46;3.45;;;1.23;;
73428;SDS011;61643;49.564;17.412;2023-07-31T14:46:12;2.30;;;0.90;;
73428;SDS011;61643;49.564;17.412;2023-07-31T14:48:38;2.08;;;1.00;;
73428;SDS011;61643;49.564;17.412;2023-07-31T14:51:04;2.90;;;0.93;;
73428;SDS011;61643;49.564;17.412;2023-07-31T14:53:30;3.80;;;1.17;;
73428;SDS011;61643;49.564;17.412;2023-07-31T14:55:56;6.88;;;1.23;;